Time;durP1;ratioP1;P1;durP2;ratioP2;P2;SDS_P1;SDS_P2;PMS_P1;PMS_P2;Temp;Humidity;BMP_temperature;BMP_pressure;BME280_temperature;BME280_humidity;BME280_pressure;Samples;Min_cycle;Max_cycle;Signal;HPM_P1;HPM_P2
2023/06/29 00:02:24;;;;;;;;;;;;;;;;;;5015060;28;19916;-61
2023/06/29 00:04:50;;;;;;;;;;;;;;;;;;5011548;28;19925;-60
2023/06/29 00:07:16;;;;;;;;;;;;;;;;;;5015113;28;19910;-61
2023/06/29 00:09:43;;;;;;;;;;;;;;;;;;5013777;28;20778;-60
2023/06/29 00:12:09;;;;;;;;;;;;;;;;;;5014748;28;20643;-59
2023/06/29 00:14:35;;;;;;;;;;;;;;;;;;5014980;28;19917;-59
2023/06/29 00:17:01;;;;;;;;;;;;;;;;;;5014674;28;19930;-61
2023/06/29 00:19:27;;;;;;;;;;;;;;;;;;4994942;28;19949;-61
2023/06/29 00:21:52;;;;;;;;;;;;;;;;;;5026974;28;20357;-61
2023/06/29 00:24:18;;;;;;;;;;;;;;;;;;5014460;28;19915;-61
2023/06/29 00:26:44;;;;;;;;;;;;;;;;;;5013912;28;19913;-61
2023/06/29 00:29:10;;;;;;;;;;;;;;;;;;5013248;28;19917;-62
2023/06/29 00:31:36;;;;;;;;;;;;;;;;;;5029505;28;19959;-62
2023/06/29 00:34:02;;;;;;;;;;;;;;;;;;5013957;28;20027;-62
2023/06/29 00:36:28;;;;;;;;;;;;;;;;;;5009016;28;20040;-63
2023/06/29 00:38:54;;;;;;;;;;;;;;;;;;5014868;28;19920;-61
2023/06/29 00:41:20;;;;;;;;;;;;;;;;;;5014122;28;19914;-62
2023/06/29 00:43:46;;;;;;;;;;;;;;;;;;5014060;28;19952;-62
2023/06/29 00:46:12;;;;;;;;;;;;;;;;;;5014387;28;19910;-62
2023/06/29 00:48:37;;;;;;;;;;;;;;;;;;5012028;28;20437;-61
2023/06/29 00:51:03;;;;;;;;;;;;;;;;;;5004763;28;19922;-62
2023/06/29 00:53:29;;;;;;;;;;;;;;;;;;5008576;28;20374;-62
2023/06/29 00:55:55;;;;;;;;;;;;;;;;;;5011455;28;19964;-62
2023/06/29 00:58:22;;;;;;;;;;;;;;;;;;5011450;28;19924;-61
2023/06/29 01:00:48;;;;;;;;;;;;;;;;;;5013043;28;19920;-64
2023/06/29 01:03:13;;;;;;;;;;;;;;;;;;5012519;28;19913;-64
2023/06/29 01:05:41;;;;;;;;;;;;;;;;;;5012173;28;19999;-64
2023/06/29 01:08:07;;;;;;;;;;;;;;;;;;5012810;28;19921;-64
2023/06/29 01:10:33;;;;;;;;;;;;;;;;;;5010833;28;19914;-64
2023/06/29 01:12:59;;;;;;;;;;;;;;;;;;5013658;28;19943;-64
2023/06/29 01:15:25;;;;;;;;;;;;;;;;;;5012048;28;19917;-64
2023/06/29 01:17:51;;;;;;;;;;;;;;;;;;5012261;28;19956;-64
2023/06/29 01:20:17;;;;;;;;;;;;;;;;;;5013464;28;20277;-64
2023/06/29 01:22:43;;;;;;;;;;;;;;;;;;5012720;28;19924;-64
2023/06/29 01:25:09;;;;;;;;;;;;;;;;;;5012090;28;19997;-64
2023/06/29 01:27:34;;;;;;;;;;;;;;;;;;5008026;28;20427;-64
2023/06/29 01:30:01;;;;;;;;;;;;;;;;;;5013123;28;19963;-64
2023/06/29 01:32:34;;;;;;;;;;;;;;;;;;5012731;28;20449;-64
2023/06/29 01:35:01;;;;;;;;;;;;;;;;;;5013205;28;20357;-65
2023/06/29 01:37:26;;;;;;;;;;;;;;;;;;5013529;28;19936;-64
2023/06/29 01:39:53;;;;;;;;;;;;;;;;;;5011525;28;19957;-64
2023/06/29 01:42:19;;;;;;;;;;;;;;;;;;5009181;28;19913;-64
2023/06/29 01:44:45;;;;;;;;;;;;;;;;;;5012335;28;19918;-64
2023/06/29 01:47:10;;;;;;;;;;;;;;;;;;5012437;28;19927;-64
2023/06/29 01:49:36;;;;;;;;;;;;;;;;;;5013018;28;20369;-64
2023/06/29 01:52:02;;;;;;;;;;;;;;;;;;5012763;28;19920;-64
2023/06/29 01:54:28;;;;;;;;;;;;;;;;;;5011682;28;19922;-64
2023/06/29 01:56:54;;;;;;;;;;;;;;;;;;5006194;28;19961;-64
2023/06/29 01:59:20;;;;;;;;;;;;;;;;;;5012441;28;19924;-64
2023/06/29 02:01:46;;;;;;;;;;;;;;;;;;5011438;28;20016;-64
2023/06/29 02:04:12;;;;;;;;;;;;;;;;;;5011979;28;19921;-65
2023/06/29 02:06:38;;;;;;;;;;;;;;;;;;5011298;28;20000;-64
2023/06/29 02:09:04;;;;;;;;;;;;;;;;;;5012929;28;19913;-64
2023/06/29 02:11:29;;;;;;;;;;;;;;;;;;5011908;28;19959;-64
2023/06/29 02:13:55;;;;;;;;;;;;;;;;;;5007410;28;19956;-64
2023/06/29 02:16:21;;;;;;;;;;;;;;;;;;5012717;28;20020;-64
2023/06/29 02:18:47;;;;;;;;;;;;;;;;;;4993809;28;19976;-65
2023/06/29 02:21:13;;;;;;;;;;;;;;;;;;5012175;28;19913;-64
2023/06/29 02:23:39;;;;;;;;;;;;;;;;;;5011924;28;19972;-64
2023/06/29 02:26:05;;;;;;;;;;;;;;;;;;5012659;28;19913;-64
2023/06/29 02:28:31;;;;;;;;;;;;;;;;;;5012460;28;20003;-64
2023/06/29 02:30:57;;;;;;;;;;;;;;;;;;5008445;28;20357;-64
2023/06/29 02:33:23;;;;;;;;;;;;;;;;;;5011487;28;19913;-64
2023/06/29 02:35:49;;;;;;;;;;;;;;;;;;5011445;28;19913;-64
2023/06/29 02:38:14;;;;;;;;;;;;;;;;;;5012547;28;19913;-64
2023/06/29 02:40:40;;;;;;;;;;;;;;;;;;5012212;28;20366;-63
2023/06/29 02:43:06;;;;;;;;;;;;;;;;;;5011419;28;19909;-64
2023/06/29 02:45:32;;;;;;;;;;;;;;;;;;5016542;28;19963;-64
2023/06/29 02:47:58;;;;;;;;;;;;;;;;;;5015966;28;20365;-65
2023/06/29 02:50:24;;;;;;;;;;;;;;;;;;5021184;28;20381;-64
2023/06/29 02:52:50;;;;;;;;;;;;;;;;;;5009283;28;20491;-65
2023/06/29 02:55:16;;;;;;;;;;;;;;;;;;5015035;28;20412;-64
2023/06/29 02:57:42;;;;;;;;;;;;;;;;;;5015528;28;19959;-64
2023/06/29 03:00:08;;;;;;;;;;;;;;;;;;5015322;28;19940;-64
2023/06/29 03:02:34;;;;;;;;;;;;;;;;;;5013974;28;20052;-64
2023/06/29 03:05:00;;;;;;;;;;;;;;;;;;5010720;28;19945;-64
2023/06/29 03:07:26;;;;;;;;;;;;;;;;;;5015480;28;20379;-64
2023/06/29 03:09:51;;;;;;;;;;;;;;;;;;5015047;28;19917;-64
2023/06/29 03:12:17;;;;;;;;;;;;;;;;;;5014323;28;20004;-64
2023/06/29 03:14:43;;;;;;;;;;;;;;;;;;4996996;28;20385;-64
2023/06/29 03:17:09;;;;;;;;;;;;;;;;;;5014917;28;19996;-64
2023/06/29 03:19:35;;;;;;;;;;;;;;;;;;5014762;28;20405;-64
2023/06/29 03:22:01;;;;;;;;;;;;;;;;;;5008600;28;19953;-64
2023/06/29 03:24:27;;;;;;;;;;;;;;;;;;5015417;28;20397;-64
2023/06/29 03:26:53;;;;;;;;;;;;;;;;;;5013205;28;19961;-64
2023/06/29 03:29:19;;;;;;;;;;;;;;;;;;5013766;28;19933;-65
2023/06/29 03:31:45;;;;;;;;;;;;;;;;;;5012987;28;19952;-64
2023/06/29 03:34:10;;;;;;;;;;;;;;;;;;5013449;28;20008;-64
2023/06/29 03:36:36;;;;;;;;;;;;;;;;;;5014079;28;19968;-64
2023/06/29 03:39:03;;;;;;;;;;;;;;;;;;5012455;28;19922;-64
2023/06/29 03:41:29;;;;;;;;;;;;;;;;;;5012711;28;19918;-64
2023/06/29 03:43:55;;;;;;;;;;;;;;;;;;5010695;28;19923;-65
2023/06/29 03:46:21;;;;;;;;;;;;;;;;;;5013057;28;19967;-64
2023/06/29 03:48:47;;;;;;;;;;;;;;;;;;5014775;28;19909;-64
2023/06/29 03:51:13;;;;;;;;;;;;;;;;;;5012948;28;19964;-64
2023/06/29 03:53:39;;;;;;;;;;;;;;;;;;5014731;28;19909;-65
2023/06/29 03:56:05;;;;;;;;;;;;;;;;;;5009724;28;20010;-64
2023/06/29 03:58:31;;;;;;;;;;;;;;;;;;5014091;28;19917;-63
2023/06/29 04:00:57;;;;;;;;;;;;;;;;;;5012739;28;19984;-64
2023/06/29 04:03:23;;;;;;;;;;;;;;;;;;5019115;28;19920;-64
2023/06/29 04:05:49;;;;;;;;;;;;;;;;;;5012480;28;19918;-65
2023/06/29 04:08:15;;;;;;;;;;;;;;;;;;5006065;28;20030;-64
2023/06/29 04:10:41;;;;;;;;;;;;;;;;;;5011108;28;19918;-65
2023/06/29 04:13:06;;;;;;;;;;;;;;;;;;5010482;28;19913;-65
2023/06/29 04:15:32;;;;;;;;;;;;;;;;;;5022786;28;20018;-64
2023/06/29 04:17:58;;;;;;;;;;;;;;;;;;5019425;28;19921;-64
2023/06/29 04:20:24;;;;;;;;;;;;;;;;;;5015166;28;20071;-64
2023/06/29 04:22:50;;;;;;;;;;;;;;;;;;5020770;28;20007;-65
2023/06/29 04:25:16;;;;;;;;;;;;;;;;;;5013034;28;19920;-64
2023/06/29 04:27:42;;;;;;;;;;;;;;;;;;5027789;28;20250;-64
2023/06/29 04:30:08;;;;;;;;;;;;;;;;;;5012087;28;19956;-64
2023/06/29 04:32:35;;;;;;;;;;;;;;;;;;5026917;28;19917;-64
2023/06/29 04:35:01;;;;;;;;;;;;;;;;;;5016736;28;19924;-64
2023/06/29 04:37:35;;;;;;;;;;;;;;;;;;5019984;28;19914;-64
2023/06/29 04:40:04;;;;;;;;;;;;;;;;;;5006733;28;19913;-64
2023/06/29 04:42:30;;;;;;;;;;;;;;;;;;5039373;28;19921;-65
2023/06/29 04:44:56;;;;;;;;;;;;;;;;;;5014782;28;19917;-64
2023/06/29 04:47:22;;;;;;;;;;;;;;;;;;5020661;28;19964;-64
2023/06/29 04:49:52;;;;;;;;;;;;;;;;;;5018080;28;19913;-64
2023/06/29 04:52:18;;;;;;;;;;;;;;;;;;5015199;28;19917;-64
2023/06/29 04:54:44;;;;;;;;;;;;;;;;;;5007271;28;20370;-64
2023/06/29 04:57:12;;;;;;;;;;;;;;;;;;5012784;28;19921;-64
2023/06/29 04:59:38;;;;;;;;;;;;;;;;;;5005299;28;19956;-65
2023/06/29 05:02:04;;;;;;;;;;;;;;;;;;5013092;28;19960;-64
2023/06/29 05:04:30;;;;;;;;;;;;;;;;;;5017696;28;19924;-65
2023/06/29 05:06:56;;;;;;;;;;;;;;;;;;5008506;28;19948;-67
2023/06/29 05:09:22;;;;;;;;;;;;;;;;;;5008589;28;20365;-64
2023/06/29 05:11:48;;;;;;;;;;;;;;;;;;5010879;28;20059;-64
2023/06/29 05:14:14;;;;;;;;;;;;;;;;;;5018825;28;19924;-64
2023/06/29 05:16:39;;;;;;;;;;;;;;;;;;5018385;28;20003;-64
2023/06/29 05:19:05;;;;;;;;;;;;;;;;;;5004977;28;19964;-64
2023/06/29 05:21:31;;;;;;;;;;;;;;;;;;5018999;28;19913;-64
2023/06/29 05:23:57;;;;;;;;;;;;;;;;;;5032269;28;19948;-64
2023/06/29 05:26:23;;;;;;;;;;;;;;;;;;5019417;28;20004;-64
2023/06/29 05:28:49;;;;;;;;;;;;;;;;;;5020462;28;19920;-64
2023/06/29 05:31:15;;;;;;;;;;;;;;;;;;5017000;28;19917;-64
2023/06/29 05:33:41;;;;;;;;;;;;;;;;;;5021605;28;19917;-64
2023/06/29 05:36:07;;;;;;;;;;;;;;;;;;5012463;28;19929;-65
2023/06/29 05:38:33;;;;;;;;;;;;;;;;;;5021346;28;20285;-64
2023/06/29 05:40:59;;;;;;;;;;;;;;;;;;5023342;28;19913;-64
2023/06/29 05:43:24;;;;;;;;;;;;;;;;;;5011919;28;19923;-64
2023/06/29 05:45:50;;;;;;;;;;;;;;;;;;5007482;28;20018;-69
2023/06/29 05:48:16;;;;;;;;;;;;;;;;;;5016185;28;19917;-64
2023/06/29 05:50:42;;;;;;;;;;;;;;;;;;5012037;28;19913;-64
2023/06/29 05:53:08;;;;;;;;;;;;;;;;;;5018901;28;19913;-63
2023/06/29 05:55:34;;;;;;;;;;;;;;;;;;5021737;28;20016;-63
2023/06/29 05:58:00;;;;;;;;;;;;;;;;;;5030913;28;19919;-63
2023/06/29 06:00:26;;;;;;;;;;;;;;;;;;5019316;28;20023;-63
2023/06/29 06:02:53;;;;;;;;;;;;;;;;;;5021879;28;19914;-63
2023/06/29 06:05:19;;;;;;;;;;;;;;;;;;5024528;28;19917;-60
2023/06/29 06:07:45;;;;;;;;;;;;;;;;;;5010688;28;19960;-63
2023/06/29 06:10:11;;;;;;;;;;;;;;;;;;5017639;28;19917;-63
2023/06/29 06:12:37;;;;;;;;;;;;;;;;;;5015825;28;19995;-63
2023/06/29 06:15:03;;;;;;;;;;;;;;;;;;5011540;28;19957;-63
2023/06/29 06:17:28;;;;;;;;;;;;;;;;;;4998073;28;19922;-63
2023/06/29 06:19:54;;;;;;;;;;;;;;;;;;5020878;28;20415;-64
2023/06/29 06:22:20;;;;;;;;;;;;;;;;;;5022328;28;19909;-63
2023/06/29 06:24:46;;;;;;;;;;;;;;;;;;5009617;28;19948;-61
2023/06/29 06:27:12;;;;;;;;;;;;;;;;;;5012309;28;19914;-63
2023/06/29 06:29:38;;;;;;;;;;;;;;;;;;5030242;28;19948;-63
2023/06/29 06:32:04;;;;;;;;;;;;;;;;;;5031434;28;19948;-63
2023/06/29 06:34:30;;;;;;;;;;;;;;;;;;5017520;28;20421;-63
2023/06/29 06:36:56;;;;;;;;;;;;;;;;;;5018553;28;20003;-63
2023/06/29 06:39:22;;;;;;;;;;;;;;;;;;5012113;28;19941;-63
2023/06/29 06:41:48;;;;;;;;;;;;;;;;;;5029974;28;20280;-64
2023/06/29 06:44:14;;;;;;;;;;;;;;;;;;5031650;28;19909;-63
2023/06/29 06:46:40;;;;;;;;;;;;;;;;;;5018233;28;19935;-64
2023/06/29 06:49:06;;;;;;;;;;;;;;;;;;5031506;28;19913;-63
2023/06/29 06:51:32;;;;;;;;;;;;;;;;;;5014564;28;19945;-63
2023/06/29 06:53:58;;;;;;;;;;;;;;;;;;5010635;28;19956;-63
2023/06/29 06:56:24;;;;;;;;;;;;;;;;;;5023120;28;19952;-63
2023/06/29 06:58:50;;;;;;;;;;;;;;;;;;5019635;28;20296;-63
2023/06/29 07:01:16;;;;;;;;;;;;;;;;;;5031126;28;19909;-63
2023/06/29 07:03:41;;;;;;;;;;;;;;;;;;5030725;28;19941;-63
2023/06/29 07:06:07;;;;;;;;;;;;;;;;;;5015135;28;20005;-63
2023/06/29 07:08:35;;;;;;;;;;;;;;;;;;5013562;28;19955;-63
2023/06/29 07:11:01;;;;;;;;;;;;;;;;;;5028982;28;19919;-64
2023/06/29 07:13:27;;;;;;;;;;;;;;;;;;5017648;28;20261;-63
2023/06/29 07:15:53;;;;;;;;;;;;;;;;;;5015947;28;19922;-63
2023/06/29 07:18:19;;;;;;;;;;;;;;;;;;5009750;28;19960;-63
2023/06/29 07:20:45;;;;;;;;;;;;;;;;;;5024557;28;20381;-63
2023/06/29 07:23:10;;;;;;;;;;;;;;;;;;5001006;28;20349;-63
2023/06/29 07:25:37;;;;;;;;;;;;;;;;;;5015193;28;19956;-64
2023/06/29 07:28:02;;;;;;;;;;;;;;;;;;5012625;28;20385;-63
2023/06/29 07:30:28;;;;;;;;;;;;;;;;;;5028338;28;19956;-63
2023/06/29 07:32:55;;;;;;;;;;;;;;;;;;5021135;28;20397;-63
2023/06/29 07:35:20;;;;;;;;;;;;;;;;;;5023207;28;19928;-63
2023/06/29 07:37:46;;;;;;;;;;;;;;;;;;5015171;28;20031;-63
2023/06/29 07:40:12;;;;;;;;;;;;;;;;;;5016847;28;20012;-63
2023/06/29 07:42:38;;;;;;;;;;;;;;;;;;5020485;28;19913;-63
2023/06/29 07:45:05;;;;;;;;;;;;;;;;;;5008093;28;19956;-63
2023/06/29 07:47:31;;;;;;;;;;;;;;;;;;5011799;28;19917;-63
2023/06/29 07:49:57;;;;;;;;;;;;;;;;;;5029820;28;20467;-63
2023/06/29 07:52:23;;;;;;;;;;;;;;;;;;5015207;28;19931;-63
2023/06/29 07:54:49;;;;;;;;;;;;;;;;;;5029431;28;20336;-63
2023/06/29 07:57:15;;;;;;;;;;;;;;;;;;5027095;28;20371;-63
2023/06/29 07:59:41;;;;;;;;;;;;;;;;;;5033822;28;20003;-64
2023/06/29 08:02:07;;;;;;;;;;;;;;;;;;5028122;28;20007;-63
2023/06/29 08:04:32;;;;;;;;;;;;;;;;;;5015884;28;19961;-63
2023/06/29 08:06:58;;;;;;;;;;;;;;;;;;5029372;28;19940;-64
2023/06/29 08:09:24;;;;;;;;;;;;;;;;;;5030095;28;20004;-63
2023/06/29 08:11:50;;;;;;;;;;;;;;;;;;5033148;28;20350;-63
2023/06/29 08:14:16;;;;;;;;;;;;;;;;;;5024159;28;19957;-63
2023/06/29 08:16:42;;;;;;;;;;;;;;;;;;5033536;28;19960;-64
2023/06/29 08:19:08;;;;;;;;;;;;;;;;;;5033328;28;19917;-63
2023/06/29 08:21:34;;;;;;;;;;;;;;;;;;5032797;28;20426;-64
2023/06/29 08:24:00;;;;;;;;;;;;;;;;;;5033688;28;19945;-63
2023/06/29 08:26:26;;;;;;;;;;;;;;;;;;5020351;28;20358;-63
2023/06/29 08:28:51;;;;;;;;;;;;;;;;;;5014930;28;20016;-63
2023/06/29 08:31:19;;;;;;;;;;;;;;;;;;5013573;28;19969;-63
2023/06/29 08:33:45;;;;;;;;;;;;;;;;;;5013593;28;19917;-63
2023/06/29 08:36:10;;;;;;;;;;;;;;;;;;5030980;28;20732;-63
2023/06/29 08:38:36;;;;;;;;;;;;;;;;;;5031458;28;19909;-64
2023/06/29 08:41:02;;;;;;;;;;;;;;;;;;5012763;28;19968;-63
2023/06/29 08:43:28;;;;;;;;;;;;;;;;;;5021307;28;20004;-63
2023/06/29 08:45:54;;;;;;;;;;;;;;;;;;5026234;28;19909;-63
2023/06/29 08:48:20;;;;;;;;;;;;;;;;;;5018307;28;19917;-63
2023/06/29 08:50:46;;;;;;;;;;;;;;;;;;5015980;28;19914;-63
2023/06/29 08:53:12;;;;;;;;;;;;;;;;;;5013709;28;19914;-63
2023/06/29 08:55:39;;;;;;;;;;;;;;;;;;5012433;28;19956;-63
2023/06/29 08:58:05;;;;;;;;;;;;;;;;;;5013169;28;19972;-64
2023/06/29 09:00:31;;;;;;;;;;;;;;;;;;5013130;28;20335;-63
2023/06/29 09:02:57;;;;;;;;;;;;;;;;;;5013372;28;19988;-63
2023/06/29 09:05:23;;;;;;;;;;;;;;;;;;5012135;28;19953;-64
2023/06/29 09:07:50;;;;;;;;;;;;;;;;;;4993632;28;19964;-64
2023/06/29 09:10:16;;;;;;;;;;;;;;;;;;4993596;28;19917;-63
2023/06/29 09:12:42;;;;;;;;;;;;;;;;;;5006207;28;19909;-64
2023/06/29 09:15:09;;;;;;;;;;;;;;;;;;5012914;28;19975;-63
2023/06/29 09:17:36;;;;;;;;;;;;;;;;;;5012754;28;19925;-63
2023/06/29 09:20:08;;;;;;;;;;;;;;;;;;5012790;28;19917;-63
2023/06/29 09:22:35;;;;;;;;;;;;;;;;;;5013188;28;20301;-64
2023/06/29 09:25:01;;;;;;;;;;;;;;;;;;5013195;28;19917;-64
2023/06/29 09:27:26;;;;;;;;;;;;;;;;;;5012873;28;20358;-63
2023/06/29 09:29:52;;;;;;;;;;;;;;;;;;5011299;28;20015;-64
2023/06/29 09:32:18;;;;;;;;;;;;;;;;;;5011413;28;20011;-63
2023/06/29 09:34:44;;;;;;;;;;;;;;;;;;5011833;28;19914;-63
2023/06/29 09:37:10;;;;;;;;;;;;;;;;;;5025260;28;20000;-64
2023/06/29 09:39:36;;;;;;;;;;;;;;;;;;5009753;28;20032;-64
2023/06/29 09:42:02;;;;;;;;;;;;;;;;;;5012380;28;19913;-64
2023/06/29 09:44:28;;;;;;;;;;;;;;;;;;5021214;28;20436;-63
2023/06/29 09:46:54;;;;;;;;;;;;;;;;;;5025070;28;19923;-63
2023/06/29 09:49:20;;;;;;;;;;;;;;;;;;5021878;28;19956;-63
2023/06/29 09:51:48;;;;;;;;;;;;;;;;;;5031666;28;19917;-63
2023/06/29 09:54:14;;;;;;;;;;;;;;;;;;5028730;28;19913;-64
2023/06/29 09:56:40;;;;;;;;;;;;;;;;;;5023035;28;19928;-64
2023/06/29 09:59:06;;;;;;;;;;;;;;;;;;5026190;28;20400;-64
2023/06/29 10:01:32;;;;;;;;;;;;;;;;;;5010686;28;19917;-64
2023/06/29 10:03:58;;;;;;;;;;;;;;;;;;5005215;28;19967;-64
2023/06/29 10:06:24;;;;;;;;;;;;;;;;;;5012199;28;19913;-64
2023/06/29 10:08:50;;;;;;;;;;;;;;;;;;5012429;28;20003;-64
2023/06/29 10:11:16;;;;;;;;;;;;;;;;;;5011809;28;19999;-64
2023/06/29 10:13:42;;;;;;;;;;;;;;;;;;5010190;28;19923;-65
2023/06/29 10:16:08;;;;;;;;;;;;;;;;;;5007946;28;20460;-63
2023/06/29 10:18:33;;;;;;;;;;;;;;;;;;5011260;28;19929;-64
2023/06/29 10:20:59;;;;;;;;;;;;;;;;;;5011131;28;19971;-63
2023/06/29 10:23:25;;;;;;;;;;;;;;;;;;5017038;28;20008;-63
2023/06/29 10:25:51;;;;;;;;;;;;;;;;;;5019724;28;19917;-63
2023/06/29 10:28:17;;;;;;;;;;;;;;;;;;5010651;28;20270;-63
2023/06/29 10:30:44;;;;;;;;;;;;;;;;;;5006252;28;19967;-61
2023/06/29 10:33:10;;;;;;;;;;;;;;;;;;5010232;28;20383;-63
2023/06/29 10:35:36;;;;;;;;;;;;;;;;;;5014545;28;20006;-63
2023/06/29 10:38:02;;;;;;;;;;;;;;;;;;5019316;28;19917;-62
2023/06/29 10:40:28;;;;;;;;;;;;;;;;;;5029901;28;19959;-63
2023/06/29 10:42:54;;;;;;;;;;;;;;;;;;5014589;28;20362;-63
2023/06/29 10:45:21;;;;;;;;;;;;;;;;;;5027471;28;20016;-63
2023/06/29 10:47:47;;;;;;;;;;;;;;;;;;5028456;28;19952;-63
2023/06/29 10:50:21;;;;;;;;;;;;;;;;;;5011575;28;19918;-62
2023/06/29 10:52:47;;;;;;;;;;;;;;;;;;5010393;28;19917;-63
2023/06/29 10:55:17;;;;;;;;;;;;;;;;;;5012688;28;19913;-62
2023/06/29 10:57:43;;;;;;;;;;;;;;;;;;5010350;28;19913;-63
2023/06/29 11:00:09;;;;;;;;;;;;;;;;;;5008356;28;19913;-63
2023/06/29 11:02:35;;;;;;;;;;;;;;;;;;5007129;28;19917;-63
2023/06/29 11:05:00;;;;;;;;;;;;;;;;;;5013198;28;19913;-63
2023/06/29 11:07:26;;;;;;;;;;;;;;;;;;5013115;28;19952;-63
2023/06/29 11:09:52;;;;;;;;;;;;;;;;;;5012687;28;20373;-63
2023/06/29 11:12:18;;;;;;;;;;;;;;;;;;5013604;28;19917;-63
2023/06/29 11:14:44;;;;;;;;;;;;;;;;;;5013981;28;20007;-63
2023/06/29 11:17:10;;;;;;;;;;;;;;;;;;5013372;28;19922;-63
2023/06/29 11:19:36;;;;;;;;;;;;;;;;;;5011081;28;19957;-63
2023/06/29 11:22:02;;;;;;;;;;;;;;;;;;5014138;28;19920;-62
2023/06/29 11:24:28;;;;;;;;;;;;;;;;;;5014826;28;19959;-62
2023/06/29 11:26:54;;;;;;;;;;;;;;;;;;5010796;28;19949;-63
2023/06/29 11:29:21;;;;;;;;;;;;;;;;;;5010991;28;19921;-62
2023/06/29 11:31:47;;;;;;;;;;;;;;;;;;5029174;28;19920;-63
2023/06/29 11:34:13;;;;;;;;;;;;;;;;;;4997257;28;19909;-63
2023/06/29 11:36:39;;;;;;;;;;;;;;;;;;5027530;28;20032;-63
2023/06/29 11:39:05;;;;;;;;;;;;;;;;;;5018652;28;20007;-63
2023/06/29 11:41:30;;;;;;;;;;;;;;;;;;5011462;28;19917;-63
2023/06/29 11:43:58;;;;;;;;;;;;;;;;;;5018415;28;20003;-63
2023/06/29 11:46:24;;;;;;;;;;;;;;;;;;5011144;28;20011;-63
2023/06/29 11:48:51;;;;;;;;;;;;;;;;;;5020493;28;19944;-62
2023/06/29 11:51:17;;;;;;;;;;;;;;;;;;5031286;28;20289;-63
2023/06/29 11:53:43;;;;;;;;;;;;;;;;;;5028037;28;19972;-63
2023/06/29 11:56:09;;;;;;;;;;;;;;;;;;5009602;28;19999;-63
2023/06/29 11:58:35;;;;;;;;;;;;;;;;;;5006904;28;19945;-62
2023/06/29 12:01:01;;;;;;;;;;;;;;;;;;5023947;28;20346;-63
2023/06/29 12:03:27;;;;;;;;;;;;;;;;;;5026200;28;19936;-63
2023/06/29 12:05:52;;;;;;;;;;;;;;;;;;5027535;28;19988;-63
2023/06/29 12:08:20;;;;;;;;;;;;;;;;;;5013305;28;19939;-63
2023/06/29 12:10:46;;;;;;;;;;;;;;;;;;4993298;28;19914;-63
2023/06/29 12:13:11;;;;;;;;;;;;;;;;;;5013391;28;20290;-62
2023/06/29 12:15:37;;;;;;;;;;;;;;;;;;5012143;28;20068;-63
2023/06/29 12:18:03;;;;;;;;;;;;;;;;;;5013258;28;19922;-63
2023/06/29 12:20:29;;;;;;;;;;;;;;;;;;5013710;28;19963;-63
2023/06/29 12:22:55;;;;;;;;;;;;;;;;;;5029269;28;19909;-63
2023/06/29 12:25:21;;;;;;;;;;;;;;;;;;5010602;28;19957;-62
2023/06/29 12:27:47;;;;;;;;;;;;;;;;;;5013908;28;20008;-63
2023/06/29 12:30:15;;;;;;;;;;;;;;;;;;5013585;28;20382;-62
2023/06/29 12:32:40;;;;;;;;;;;;;;;;;;5011538;28;19917;-62
2023/06/29 12:35:06;;;;;;;;;;;;;;;;;;5025476;28;19955;-62
2023/06/29 12:37:32;;;;;;;;;;;;;;;;;;5027226;28;20289;-62
2023/06/29 12:39:58;;;;;;;;;;;;;;;;;;5014359;28;19910;-62
2023/06/29 12:42:24;;;;;;;;;;;;;;;;;;5015167;28;20413;-69
2023/06/29 12:44:50;;;;;;;;;;;;;;;;;;5026051;28;19953;-69
2023/06/29 12:47:18;;;;;;;;;;;;;;;;;;5021105;28;19919;-69
2023/06/29 12:49:44;;;;;;;;;;;;;;;;;;5013357;28;19909;-69
2023/06/29 12:52:10;;;;;;;;;;;;;;;;;;5013804;28;20258;-70
2023/06/29 12:54:36;;;;;;;;;;;;;;;;;;5016923;28;19952;-69
2023/06/29 12:57:02;;;;;;;;;;;;;;;;;;5010725;28;19941;-69
2023/06/29 12:59:28;;;;;;;;;;;;;;;;;;4996251;28;20284;-69
2023/06/29 13:01:54;;;;;;;;;;;;;;;;;;5010897;28;19923;-69
2023/06/29 13:04:20;;;;;;;;;;;;;;;;;;5012269;28;20004;-69
2023/06/29 13:06:46;;;;;;;;;;;;;;;;;;5026717;28;20012;-69
2023/06/29 13:09:12;;;;;;;;;;;;;;;;;;5028144;28;19931;-69
2023/06/29 13:11:38;;;;;;;;;;;;;;;;;;4994719;28;20285;-69
2023/06/29 13:14:04;;;;;;;;;;;;;;;;;;5011000;28;19917;-69
2023/06/29 13:16:30;;;;;;;;;;;;;;;;;;5010930;28;19925;-69
2023/06/29 13:18:56;;;;;;;;;;;;;;;;;;5009754;28;19921;-70
2023/06/29 13:21:22;;;;;;;;;;;;;;;;;;5012607;28;19953;-70
2023/06/29 13:23:48;;;;;;;;;;;;;;;;;;5010004;28;20386;-69
2023/06/29 13:26:14;;;;;;;;;;;;;;;;;;5013384;28;20040;-69
2023/06/29 13:28:40;;;;;;;;;;;;;;;;;;5011404;28;19914;-67
2023/06/29 13:31:06;;;;;;;;;;;;;;;;;;5011125;28;19929;-67
2023/06/29 13:33:31;;;;;;;;;;;;;;;;;;5010831;28;19922;-69
2023/06/29 13:35:57;;;;;;;;;;;;;;;;;;4999464;28;20401;-69
2023/06/29 13:38:23;;;;;;;;;;;;;;;;;;5010566;28;19917;-69
2023/06/29 13:40:49;;;;;;;;;;;;;;;;;;5023225;28;19992;-69
2023/06/29 13:43:15;;;;;;;;;;;;;;;;;;5023058;28;19954;-67
2023/06/29 13:45:41;;;;;;;;;;;;;;;;;;5013465;28;19924;-67
2023/06/29 13:48:07;;;;;;;;;;;;;;;;;;5028275;28;19913;-67
2023/06/29 13:50:33;;;;;;;;;;;;;;;;;;5008311;28;20016;-67
2023/06/29 13:52:59;;;;;;;;;;;;;;;;;;5010972;28;20023;-67
2023/06/29 13:55:25;;;;;;;;;;;;;;;;;;5027244;28;20024;-67
2023/06/29 13:57:50;;;;;;;;;;;;;;;;;;5009086;28;20765;-67
2023/06/29 14:00:17;;;;;;;;;;;;;;;;;;4989965;28;19925;-67
2023/06/29 14:02:43;;;;;;;;;;;;;;;;;;5009459;28;20000;-67
2023/06/29 14:05:08;;;;;;;;;;;;;;;;;;5008870;28;20373;-67
2023/06/29 14:07:34;;;;;;;;;;;;;;;;;;5010102;28;19964;-67
2023/06/29 14:10:00;;;;;;;;;;;;;;;;;;5025775;28;19917;-67
2023/06/29 14:12:26;;;;;;;;;;;;;;;;;;5011037;28;19921;-67
2023/06/29 14:14:52;;;;;;;;;;;;;;;;;;5025881;28;19971;-67
2023/06/29 14:17:20;;;;;;;;;;;;;;;;;;5027022;28;20009;-67
2023/06/29 14:19:46;;;;;;;;;;;;;;;;;;5012470;28;19959;-67
2023/06/29 14:22:12;;;;;;;;;;;;;;;;;;5012006;28;20011;-67
2023/06/29 14:24:38;;;;;;;;;;;;;;;;;;5012121;28;20443;-67
2023/06/29 14:27:04;;;;;;;;;;;;;;;;;;5011838;28;20012;-67
2023/06/29 14:29:30;;;;;;;;;;;;;;;;;;5009670;28;20075;-67
2023/06/29 14:31:56;;;;;;;;;;;;;;;;;;5021196;28;19913;-67
2023/06/29 14:34:22;;;;;;;;;;;;;;;;;;5020595;28;19921;-68
2023/06/29 14:36:48;;;;;;;;;;;;;;;;;;5013706;28;19995;-67
2023/06/29 14:39:14;;;;;;;;;;;;;;;;;;5021017;28;20369;-68
2023/06/29 14:41:39;;;;;;;;;;;;;;;;;;5017855;28;19920;-67
2023/06/29 14:44:05;;;;;;;;;;;;;;;;;;5025685;28;19980;-67
2023/06/29 14:46:31;;;;;;;;;;;;;;;;;;5024307;28;20063;-67
2023/06/29 14:48:57;;;;;;;;;;;;;;;;;;5017695;28;19944;-67
2023/06/29 14:51:23;;;;;;;;;;;;;;;;;;5014123;28;20288;-67
2023/06/29 14:53:49;;;;;;;;;;;;;;;;;;5010091;28;19919;-67
2023/06/29 14:56:15;;;;;;;;;;;;;;;;;;5015989;28;19956;-67
2023/06/29 14:58:41;;;;;;;;;;;;;;;;;;5036166;28;19917;-67
2023/06/29 15:01:07;;;;;;;;;;;;;;;;;;5017882;28;19920;-67
2023/06/29 15:03:33;;;;;;;;;;;;;;;;;;5015250;28;20417;-67
2023/06/29 15:05:58;;;;;;;;;;;;;;;;;;4996113;28;19992;-67
2023/06/29 15:08:26;;;;;;;;;;;;;;;;;;5019778;28;20011;-67
2023/06/29 15:10:51;;;;;;;;;;;;;;;;;;5022308;28;19932;-67
2023/06/29 15:13:17;;;;;;;;;;;;;;;;;;5018153;28;19917;-67
2023/06/29 15:15:44;;;;;;;;;;;;;;;;;;5017246;28;20416;-67
2023/06/29 15:18:09;;;;;;;;;;;;;;;;;;4994704;28;20397;-67
2023/06/29 15:20:35;;;;;;;;;;;;;;;;;;5013278;28;19956;-67
2023/06/29 15:23:01;;;;;;;;;;;;;;;;;;5014134;28;19956;-67
2023/06/29 15:25:27;;;;;;;;;;;;;;;;;;5018278;28;19957;-67
2023/06/29 15:27:57;;;;;;;;;;;;;;;;;;5013270;28;21540;-67
2023/06/29 15:30:23;;;;;;;;;;;;;;;;;;5014664;28;19928;-67
2023/06/29 15:32:49;;;;;;;;;;;;;;;;;;5015618;28;20008;-68
2023/06/29 15:35:15;;;;;;;;;;;;;;;;;;5010226;28;19999;-67
2023/06/29 15:37:41;;;;;;;;;;;;;;;;;;5015202;28;19974;-67
2023/06/29 15:40:07;;;;;;;;;;;;;;;;;;5016722;28;20356;-68
2023/06/29 15:42:33;;;;;;;;;;;;;;;;;;4998531;28;19920;-68
2023/06/29 15:44:59;;;;;;;;;;;;;;;;;;5016350;28;19910;-67
2023/06/29 15:47:27;;;;;;;;;;;;;;;;;;4998662;28;19920;-67
2023/06/29 15:49:52;;;;;;;;;;;;;;;;;;5014152;28;20020;-67
2023/06/29 15:52:18;;;;;;;;;;;;;;;;;;5012490;28;20401;-67
2023/06/29 15:54:44;;;;;;;;;;;;;;;;;;4992584;28;19919;-63
2023/06/29 15:57:10;;;;;;;;;;;;;;;;;;5011687;28;20015;-67
2023/06/29 15:59:36;;;;;;;;;;;;;;;;;;5026987;28;19963;-67
2023/06/29 16:02:02;;;;;;;;;;;;;;;;;;5019110;28;20014;-67
2023/06/29 16:04:28;;;;;;;;;;;;;;;;;;5012770;28;20354;-68
2023/06/29 16:06:54;;;;;;;;;;;;;;;;;;5021191;28;20019;-68
2023/06/29 16:09:20;;;;;;;;;;;;;;;;;;5018387;28;20372;-67
2023/06/29 16:11:46;;;;;;;;;;;;;;;;;;5023430;28;20008;-67
2023/06/29 16:14:12;;;;;;;;;;;;;;;;;;5018854;28;19981;-67
2023/06/29 16:16:38;;;;;;;;;;;;;;;;;;5010969;28;20497;-67
2023/06/29 16:19:04;;;;;;;;;;;;;;;;;;4993281;28;20009;-67
2023/06/29 16:21:30;;;;;;;;;;;;;;;;;;4993476;28;19917;-67
2023/06/29 16:23:56;;;;;;;;;;;;;;;;;;5017685;28;19952;-67
2023/06/29 16:26:21;;;;;;;;;;;;;;;;;;5028643;28;19922;-67
2023/06/29 16:28:47;;;;;;;;;;;;;;;;;;5010170;28;19921;-67
2023/06/29 16:31:14;;;;;;;;;;;;;;;;;;5009400;28;20008;-67
2023/06/29 16:33:39;;;;;;;;;;;;;;;;;;5008388;28;19914;-67
2023/06/29 16:36:05;;;;;;;;;;;;;;;;;;5010978;28;19967;-67
2023/06/29 16:38:31;;;;;;;;;;;;;;;;;;4998377;28;19914;-67